Burkeville, Texas
Current Conditions -  °F | °C
As of 12:15 PM on Friday 19 Dec 2014 (Local Time) from KJAS Reporting Station
Moderate Rain Moderate Rain  
Wind Chill: 50°   Ceiling: 700
Heat Index: 50°   Visibility: 7mi
Dew Point: 48°   Wind: 13mph
Humidity: 94%   Direction: 350°N
Pressure: 30.12"   Gusts: 18mph
Location:  31°N, 93.67°W
Report Text: KJAS 191815Z AUTO 35011G16KT 7SM RA OVC007 10/09 A3012 RMK AO2 P0003 T01000091
Loading
Personal Weather Stations






























Interactive Weather Map New forecast layout! Learn more

10-Day Weather Forecast

Advertisements
Track Severe Weather on mobile